Time;durP1;ratioP1;P1;durP2;ratioP2;P2;SDS_P1;SDS_P2;PMS_P1;PMS_P2;Temp;Humidity;BMP_temperature;BMP_pressure;BME280_temperature;BME280_humidity;BME280_pressure;Samples;Min_cycle;Max_cycle;Signal;HPM_P1;HPM_P2
2023/04/28 00:01:36;;;;;;;1.50;1.10;;;12.80;91.70;;;;;;4998606;28;20484;-74
2023/04/28 00:04:05;;;;;;;1.50;1.10;;;12.80;91.70;;;;;;5006022;28;20472;-76
2023/04/28 00:06:31;;;;;;;1.40;1.00;;;12.80;91.40;;;;;;5000869;28;20531;-75
2023/04/28 00:08:58;;;;;;;1.50;1.00;;;12.80;91.20;;;;;;5010891;28;20459;-77
2023/04/28 00:11:25;;;;;;;1.47;1.10;;;12.80;91.30;;;;;;5002879;28;20556;-74
2023/04/28 00:13:52;;;;;;;1.47;1.10;;;12.80;91.10;;;;;;5001826;28;20482;-74
2023/04/28 00:16:19;;;;;;;1.43;1.00;;;12.90;91.10;;;;;;5002611;28;20469;-75
2023/04/28 00:18:46;;;;;;;1.40;1.00;;;12.90;92.40;;;;;;5005151;28;20458;-74
2023/04/28 00:21:14;;;;;;;1.43;1.00;;;12.90;93.60;;;;;;5000187;28;20480;-76
2023/04/28 00:23:41;;;;;;;1.40;1.00;;;12.90;94.10;;;;;;5006159;28;20497;-76
2023/04/28 00:26:07;;;;;;;1.50;1.10;;;12.80;94.50;;;;;;5002850;28;20537;-76
2023/04/28 00:28:34;;;;;;;2.37;2.00;;;12.80;94.80;;;;;;5008918;28;20810;-76
2023/04/28 00:31:01;;;;;;;1.43;1.00;;;12.70;95.30;;;;;;5002254;28;20511;-77
2023/04/28 00:33:28;;;;;;;1.60;1.47;;;12.70;95.40;;;;;;5007779;28;20484;-77
2023/04/28 00:35:59;;;;;;;1.50;1.10;;;12.70;95.60;;;;;;5005080;28;21024;-78
2023/04/28 00:38:28;;;;;;;1.50;1.20;;;12.60;95.50;;;;;;5015880;28;20694;-78
2023/04/28 00:40:54;;;;;;;1.50;1.00;;;12.60;96.10;;;;;;5004947;28;20843;-78
2023/04/28 00:43:21;;;;;;;1.50;1.10;;;12.60;96.10;;;;;;5009376;28;20489;-79
2023/04/28 00:45:49;;;;;;;1.47;1.00;;;12.60;96.20;;;;;;5002304;28;20955;-77
2023/04/28 00:48:16;;;;;;;1.43;1.07;;;12.60;96.10;;;;;;5015284;28;20559;-77
2023/04/28 00:50:43;;;;;;;1.43;1.00;;;12.60;96.70;;;;;;5016845;28;20855;-78
2023/04/28 00:53:11;;;;;;;1.50;1.07;;;12.60;96.30;;;;;;5005042;28;20884;-78
2023/04/28 00:55:42;;;;;;;1.40;1.00;;;12.50;96.50;;;;;;5016660;28;20948;-78
2023/04/28 00:58:10;;;;;;;1.50;1.10;;;12.50;96.40;;;;;;4997010;28;20530;-77
2023/04/28 01:00:36;;;;;;;1.50;1.10;;;12.50;96.90;;;;;;5016549;28;20461;-80
2023/04/28 01:03:03;;;;;;;1.50;1.10;;;12.50;96.80;;;;;;5004251;28;20482;-76
2023/04/28 01:05:31;;;;;;;1.47;1.00;;;12.50;96.50;;;;;;5016377;28;20463;-79
2023/04/28 01:07:57;;;;;;;1.50;1.10;;;12.50;96.70;;;;;;5005545;28;20858;-79
2023/04/28 01:10:25;;;;;;;1.50;1.10;;;12.50;97.10;;;;;;5014904;28;20472;-78
2023/04/28 01:12:53;;;;;;;1.50;1.10;;;12.50;96.90;;;;;;5003558;28;20483;-76
2023/04/28 01:15:21;;;;;;;1.43;1.00;;;12.50;97.20;;;;;;5013479;28;20482;-75
2023/04/28 01:17:48;;;;;;;1.43;1.10;;;12.50;97.60;;;;;;5002794;28;20742;-78
2023/04/28 01:20:15;;;;;;;1.50;1.20;;;12.50;98.20;;;;;;5009612;28;20496;-79
2023/04/28 01:22:42;;;;;;;1.50;1.10;;;12.50;98.20;;;;;;5005272;28;20502;-80
2023/04/28 01:25:10;;;;;;;1.40;1.00;;;12.40;98.20;;;;;;5013599;28;20507;-79
2023/04/28 01:27:37;;;;;;;1.50;1.10;;;12.40;98.20;;;;;;5006514;28;20487;-77
2023/04/28 01:30:04;;;;;;;1.43;1.00;;;12.30;98.20;;;;;;5013352;28;20474;-80
2023/04/28 01:32:31;;;;;;;1.47;1.00;;;12.30;98.20;;;;;;5004426;28;20488;-79
2023/04/28 01:34:57;;;;;;;1.47;1.00;;;12.30;98.20;;;;;;5015443;28;20849;-79
2023/04/28 01:37:26;;;;;;;1.43;1.00;;;12.30;98.20;;;;;;5002971;28;20476;-76
2023/04/28 01:39:53;;;;;;;1.50;1.10;;;12.30;98.20;;;;;;5009758;28;20479;-78
2023/04/28 01:42:21;;;;;;;1.50;1.07;;;12.20;98.20;;;;;;4994003;28;20475;-77
2023/04/28 01:44:48;;;;;;;1.40;1.00;;;12.20;98.20;;;;;;5018828;28;20464;-77
2023/04/28 01:47:14;;;;;;;1.50;1.10;;;12.20;98.20;;;;;;4988074;28;20515;-77
2023/04/28 01:49:41;;;;;;;1.43;1.00;;;12.20;98.20;;;;;;4992070;28;20460;-78
2023/04/28 01:52:08;;;;;;;3.50;3.30;;;12.20;98.20;;;;;;4993372;28;20480;-77
2023/04/28 01:54:35;;;;;;;1.47;1.00;;;12.20;98.20;;;;;;4999175;28;20471;-80
2023/04/28 01:57:02;;;;;;;1.50;1.00;;;12.20;98.20;;;;;;4987631;28;20595;-80
2023/04/28 01:59:30;;;;;;;1.47;1.00;;;12.20;98.20;;;;;;5006558;28;20460;-78
2023/04/28 02:01:57;;;;;;;2.07;1.67;;;12.10;98.20;;;;;;4994518;28;20502;-78
2023/04/28 02:04:24;;;;;;;1.50;1.20;;;12.10;98.20;;;;;;5006618;28;20464;-80
2023/04/28 02:06:51;;;;;;;1.47;1.10;;;12.00;98.20;;;;;;4994430;28;20529;-78
2023/04/28 02:09:17;;;;;;;1.50;1.10;;;12.00;98.20;;;;;;5003396;28;20465;-78
2023/04/28 02:11:44;;;;;;;1.43;1.00;;;12.00;98.20;;;;;;4995305;28;20483;-78
2023/04/28 02:14:11;;;;;;;1.47;1.00;;;11.90;98.20;;;;;;5005713;28;20464;-77
2023/04/28 02:16:39;;;;;;;1.43;1.00;;;11.90;98.20;;;;;;4993056;28;20530;-79
2023/04/28 02:19:06;;;;;;;1.43;1.00;;;11.80;98.20;;;;;;5001718;28;20465;-80
2023/04/28 02:21:33;;;;;;;1.47;1.00;;;11.80;98.20;;;;;;4988316;28;20480;-77
2023/04/28 02:24:00;;;;;;;1.50;1.10;;;11.70;98.20;;;;;;5004854;28;20491;-78
2023/04/28 02:26:26;;;;;;;1.47;1.03;;;11.70;98.20;;;;;;4998091;28;20762;-78
2023/04/28 02:28:53;;;;;;;1.50;1.20;;;11.60;98.20;;;;;;5001028;28;20461;-77
2023/04/28 02:31:20;;;;;;;1.47;1.10;;;11.60;98.20;;;;;;4993968;28;20569;-77
2023/04/28 02:33:48;;;;;;;1.50;1.10;;;11.60;98.20;;;;;;5002610;28;20511;-76
2023/04/28 02:36:15;;;;;;;1.50;1.00;;;11.60;98.20;;;;;;4991364;28;20482;-76
2023/04/28 02:38:42;;;;;;;1.50;1.10;;;11.60;98.20;;;;;;5003648;28;20742;-76
2023/04/28 02:41:09;;;;;;;1.50;1.00;;;11.60;98.20;;;;;;4993218;28;20476;-75
2023/04/28 02:43:36;;;;;;;1.50;1.10;;;11.50;98.20;;;;;;4995364;28;20496;-75
2023/04/28 02:46:03;;;;;;;1.50;1.10;;;11.50;98.20;;;;;;4987969;28;20517;-75
2023/04/28 02:48:31;;;;;;;1.50;1.00;;;11.50;98.20;;;;;;4997187;28;20465;-74
2023/04/28 02:50:59;;;;;;;1.50;1.20;;;11.50;98.20;;;;;;4991311;28;20490;-74
2023/04/28 02:53:26;;;;;;;1.50;1.10;;;11.50;98.20;;;;;;4999058;28;20480;-75
2023/04/28 02:55:53;;;;;;;1.47;1.10;;;11.60;98.20;;;;;;4990801;28;20457;-74
2023/04/28 02:58:20;;;;;;;1.47;1.03;;;11.60;98.20;;;;;;4990184;28;20460;-74
2023/04/28 03:00:46;;;;;;;1.50;1.10;;;11.60;98.20;;;;;;4997946;28;20460;-74
2023/04/28 03:03:13;;;;;;;1.50;1.10;;;11.50;98.20;;;;;;4999854;28;20488;-75
2023/04/28 03:05:40;;;;;;;1.50;1.10;;;11.50;98.20;;;;;;5001250;28;20469;-75
2023/04/28 03:08:08;;;;;;;1.50;1.20;;;11.50;98.20;;;;;;4989377;28;20488;-76
2023/04/28 03:10:35;;;;;;;1.97;1.77;;;11.40;98.20;;;;;;5003371;28;20472;-76
2023/04/28 03:13:01;;;;;;;1.50;1.10;;;11.40;98.20;;;;;;4988492;28;20480;-76
2023/04/28 03:15:28;;;;;;;1.47;1.10;;;11.40;98.20;;;;;;5003005;28;20472;-76
2023/04/28 03:17:55;;;;;;;1.50;1.20;;;11.40;98.20;;;;;;4990888;28;20488;-76
2023/04/28 03:20:22;;;;;;;1.50;1.03;;;11.40;98.20;;;;;;5000609;28;20464;-75
2023/04/28 03:22:49;;;;;;;1.43;1.00;;;11.40;98.20;;;;;;4984921;28;20479;-75
2023/04/28 03:25:17;;;;;;;2.27;1.53;;;11.40;98.20;;;;;;5000853;28;20523;-75
2023/04/28 03:27:44;;;;;;;1.47;1.07;;;11.40;98.20;;;;;;4987536;28;20563;-74
2023/04/28 03:30:11;;;;;;;1.47;1.00;;;11.30;98.20;;;;;;4998080;28;20456;-75
2023/04/28 03:32:38;;;;;;;1.50;1.10;;;11.30;98.20;;;;;;4986002;28;20480;-77
2023/04/28 03:35:06;;;;;;;1.43;1.00;;;11.30;98.20;;;;;;4998410;28;20559;-76
2023/04/28 03:37:33;;;;;;;1.50;1.20;;;11.20;98.20;;;;;;4991265;28;20480;-76
2023/04/28 03:40:00;;;;;;;1.50;1.10;;;11.20;98.20;;;;;;5003782;28;20551;-75
2023/04/28 03:42:28;;;;;;;1.50;1.10;;;11.20;98.20;;;;;;4990365;28;20577;-75
2023/04/28 03:44:55;;;;;;;1.47;1.00;;;11.20;98.20;;;;;;5003165;28;20784;-76
2023/04/28 03:47:22;;;;;;;1.50;1.10;;;11.10;98.20;;;;;;4990415;28;20484;-74
2023/04/28 03:49:49;;;;;;;1.50;1.10;;;11.10;98.20;;;;;;5000543;28;20464;-75
2023/04/28 03:52:15;;;;;;;1.47;1.10;;;11.10;98.20;;;;;;4992501;28;20563;-75
2023/04/28 03:54:51;;;;;;;1.50;1.10;;;11.00;98.20;;;;;;5018694;23;20503;-78
2023/04/28 03:57:58;;;;;;;1.50;1.13;;;11.00;98.20;;;;;;4988232;28;20495;-77
2023/04/28 04:00:34;;;;;;;1.50;1.10;;;11.00;98.20;;;;;;4996661;28;20468;-77
2023/04/28 04:03:06;;;;;;;1.50;1.10;;;11.00;98.20;;;;;;4988866;28;20536;-77
2023/04/28 04:05:36;;;;;;;1.50;1.10;;;11.00;98.20;;;;;;4994174;28;20988;-77
2023/04/28 04:08:03;;;;;;;1.50;1.10;;;11.00;98.20;;;;;;4990594;28;20475;-77
2023/04/28 04:10:32;;;;;;;2.13;1.93;;;11.00;98.20;;;;;;4999956;28;20461;-77
2023/04/28 04:13:00;;;;;;;1.50;1.27;;;10.90;98.20;;;;;;4992393;28;21102;-78
2023/04/28 04:15:27;;;;;;;1.50;1.20;;;10.90;98.20;;;;;;4992761;28;20630;-77
2023/04/28 04:17:54;;;;;;;1.50;1.20;;;10.80;98.20;;;;;;4989896;28;20484;-77
2023/04/28 04:20:21;;;;;;;1.50;1.10;;;10.80;98.20;;;;;;4995668;28;20640;-77
2023/04/28 04:22:48;;;;;;;1.50;1.20;;;10.80;98.20;;;;;;4985140;28;20497;-77
2023/04/28 04:25:15;;;;;;;1.50;1.10;;;10.80;98.20;;;;;;4986856;28;20867;-77
2023/04/28 04:27:42;;;;;;;1.47;1.03;;;10.90;98.20;;;;;;4991738;28;20564;-75
2023/04/28 04:30:13;;;;;;;1.47;1.00;;;10.90;98.20;;;;;;4991089;28;20465;-75
2023/04/28 04:32:40;;;;;;;1.50;1.10;;;10.90;98.20;;;;;;4982416;28;20612;-78
2023/04/28 04:35:07;;;;;;;1.50;1.17;;;10.90;98.20;;;;;;4988533;28;20461;-78
2023/04/28 04:37:34;;;;;;;1.47;1.00;;;10.90;98.20;;;;;;4986657;28;20491;-78
2023/04/28 04:40:02;;;;;;;1.50;1.10;;;10.90;98.20;;;;;;5000456;28;20476;-78
2023/04/28 04:42:28;;;;;;;1.50;1.10;;;10.90;98.20;;;;;;4991101;28;20468;-78
2023/04/28 04:44:55;;;;;;;1.50;1.10;;;10.90;98.20;;;;;;4990170;28;20457;-78
2023/04/28 04:47:27;;;;;;;1.43;1.00;;;10.90;98.20;;;;;;5001967;28;20480;-77
2023/04/28 04:49:54;;;;;;;1.50;1.10;;;11.00;98.20;;;;;;4995829;28;20659;-78
2023/04/28 04:52:20;;;;;;;1.47;1.00;;;11.00;98.20;;;;;;4993943;28;20491;-78
2023/04/28 04:54:47;;;;;;;1.50;1.10;;;11.00;98.20;;;;;;4995485;28;20493;-77
2023/04/28 04:57:14;;;;;;;1.50;1.00;;;11.00;98.20;;;;;;4990984;28;20858;-77
2023/04/28 04:59:41;;;;;;;1.50;1.00;;;11.00;98.20;;;;;;4994290;28;20461;-79
2023/04/28 05:02:08;;;;;;;1.50;1.20;;;11.00;98.20;;;;;;4982766;28;21000;-77
2023/04/28 05:04:36;;;;;;;1.47;1.10;;;11.10;98.20;;;;;;4990030;28;20496;-77
2023/04/28 05:07:03;;;;;;;1.50;1.13;;;11.00;98.20;;;;;;4981736;28;20513;-79
2023/04/28 05:09:30;;;;;;;1.50;1.10;;;11.10;98.20;;;;;;4995991;28;20469;-78
2023/04/28 05:11:58;;;;;;;1.50;1.10;;;11.10;98.20;;;;;;4989648;28;20999;-78
2023/04/28 05:14:31;;;;;;;1.50;1.20;;;11.10;98.20;;;;;;4993627;28;20495;-76
2023/04/28 05:17:04;;;;;;;1.50;1.10;;;11.10;98.20;;;;;;4989221;28;20612;-80
2023/04/28 05:19:30;;;;;;;1.50;1.10;;;11.10;98.20;;;;;;4995269;28;20458;-79
2023/04/28 05:22:01;;;;;;;1.87;1.77;;;11.10;98.20;;;;;;4986112;28;20841;-78
2023/04/28 05:24:41;;;;;;;;;;;;;;;;;;;;;
2023/04/28 05:27:08;;;;;;;1.50;1.10;;;11.10;98.20;;;;;;4990627;28;20488;-78
2023/04/28 05:29:34;;;;;;;1.43;1.10;;;11.10;98.20;;;;;;4986948;28;20476;-75
2023/04/28 05:32:01;;;;;;;1.50;1.10;;;11.10;98.20;;;;;;4984661;28;20484;-76
2023/04/28 05:34:28;;;;;;;1.50;1.10;;;11.20;98.20;;;;;;4985685;28;20481;-78
2023/04/28 05:36:55;;;;;;;1.50;1.07;;;11.10;98.20;;;;;;4987883;28;20729;-77
2023/04/28 05:39:23;;;;;;;1.50;1.10;;;11.20;98.20;;;;;;4990980;28;20547;-78
2023/04/28 05:41:50;;;;;;;1.50;1.10;;;11.20;98.20;;;;;;4986930;28;20867;-77
2023/04/28 05:44:17;;;;;;;1.50;1.10;;;11.20;98.20;;;;;;4997112;28;20492;-78
2023/04/28 05:46:44;;;;;;;1.50;1.10;;;11.20;98.20;;;;;;4983784;28;20485;-77
2023/04/28 05:49:11;;;;;;;1.50;1.10;;;11.30;98.20;;;;;;4989023;28;20477;-78
2023/04/28 05:51:38;;;;;;;1.47;1.00;;;11.30;98.20;;;;;;4975521;28;20480;-77
2023/04/28 05:54:05;;;;;;;1.50;1.00;;;11.30;98.20;;;;;;4987817;28;20504;-76
2023/04/28 05:56:33;;;;;;;1.50;1.30;;;11.30;98.20;;;;;;4981053;28;20515;-78
2023/04/28 05:59:02;;;;;;;1.50;1.10;;;11.40;98.20;;;;;;4992564;28;20468;-77
2023/04/28 06:01:29;;;;;;;1.47;1.00;;;11.40;98.20;;;;;;4988284;28;20472;-76
2023/04/28 06:03:57;;;;;;;1.50;1.00;;;11.50;98.20;;;;;;5001363;28;20500;-83
2023/04/28 06:06:24;;;;;;;1.50;1.10;;;11.60;98.20;;;;;;4983296;28;20484;-77
2023/04/28 06:08:53;;;;;;;1.50;1.10;;;11.60;98.20;;;;;;4995441;28;21311;-78
2023/04/28 06:11:21;;;;;;;1.50;1.30;;;11.60;98.20;;;;;;4980180;28;20480;-76
2023/04/28 06:13:50;;;;;;;1.50;1.20;;;11.60;98.20;;;;;;4995043;28;20508;-76
2023/04/28 06:16:17;;;;;;;1.50;1.10;;;11.70;98.20;;;;;;4974338;28;20825;-77
2023/04/28 06:18:44;;;;;;;1.50;1.20;;;11.70;98.20;;;;;;4999641;28;20477;-78
2023/04/28 06:21:11;;;;;;;1.47;1.00;;;11.70;98.20;;;;;;4980373;28;20481;-76
2023/04/28 06:23:39;;;;;;;1.50;1.00;;;11.80;98.20;;;;;;4993954;28;20523;-76
2023/04/28 06:26:06;;;;;;;1.50;1.10;;;11.80;98.20;;;;;;4975202;28;20490;-76
2023/04/28 06:28:33;;;;;;;1.50;1.10;;;11.80;98.20;;;;;;4985661;28;20472;-75
2023/04/28 06:31:01;;;;;;;1.47;1.00;;;11.80;98.20;;;;;;4973486;28;20461;-76
2023/04/28 06:33:28;;;;;;;1.50;1.10;;;11.80;98.20;;;;;;4999476;28;20481;-75
2023/04/28 06:35:55;;;;;;;1.50;1.00;;;11.90;98.20;;;;;;4978129;28;20479;-75
2023/04/28 06:38:21;;;;;;;1.77;1.47;;;12.00;98.20;;;;;;4995508;28;20473;-74
2023/04/28 06:40:48;;;;;;;1.50;1.00;;;12.10;98.20;;;;;;4979313;28;20476;-75
2023/04/28 06:43:15;;;;;;;1.50;1.00;;;12.30;98.20;;;;;;4997641;28;20492;-75
2023/04/28 06:45:42;;;;;;;1.50;1.10;;;12.40;98.20;;;;;;4983245;28;20469;-76
2023/04/28 06:48:10;;;;;;;1.50;1.13;;;12.50;98.20;;;;;;4988302;28;20571;-76
2023/04/28 06:50:37;;;;;;;1.43;1.00;;;12.50;98.20;;;;;;4988208;28;20504;-78
2023/04/28 06:53:04;;;;;;;1.50;1.00;;;12.70;98.20;;;;;;4981042;28;21033;-76
2023/04/28 06:55:32;;;;;;;1.50;1.10;;;12.90;98.20;;;;;;4986595;28;20461;-76
2023/04/28 06:57:59;;;;;;;1.50;1.00;;;13.00;98.20;;;;;;4982442;28;20497;-76
2023/04/28 07:00:26;;;;;;;1.50;1.10;;;13.10;98.20;;;;;;4978839;28;20484;-75
2023/04/28 07:02:53;;;;;;;1.80;1.37;;;13.10;98.20;;;;;;4981580;28;20491;-74
2023/04/28 07:05:21;;;;;;;1.50;1.00;;;13.00;98.20;;;;;;4982321;28;21005;-75
2023/04/28 07:07:48;;;;;;;1.50;1.20;;;13.00;98.20;;;;;;4985997;28;21003;-74
2023/04/28 07:10:15;;;;;;;1.47;1.00;;;12.90;98.20;;;;;;4986246;28;20468;-74
2023/04/28 07:12:42;;;;;;;1.50;1.00;;;12.90;98.20;;;;;;4984889;28;20599;-75
2023/04/28 07:15:09;;;;;;;1.50;1.00;;;12.80;98.20;;;;;;4979918;28;20467;-75
2023/04/28 07:17:36;;;;;;;1.43;0.90;;;12.80;98.20;;;;;;4987395;28;20491;-74
2023/04/28 07:20:04;;;;;;;1.50;1.00;;;12.90;98.20;;;;;;4990458;28;20463;-75
2023/04/28 07:22:32;;;;;;;1.50;1.00;;;12.80;98.20;;;;;;4991956;28;21163;-76
2023/04/28 07:24:59;;;;;;;1.50;1.00;;;12.80;98.20;;;;;;4982775;28;21074;-73
2023/04/28 07:27:26;;;;;;;1.43;0.90;;;12.80;98.20;;;;;;4980530;28;20495;-73
2023/04/28 07:29:52;;;;;;;1.50;1.10;;;12.80;98.20;;;;;;4991125;28;20843;-75
2023/04/28 07:32:19;;;;;;;2.77;1.77;;;12.70;98.20;;;;;;4984205;28;20486;-74
2023/04/28 07:34:46;;;;;;;1.47;0.90;;;12.70;98.20;;;;;;4985560;28;20850;-75
2023/04/28 07:37:28;;;;;;;1.50;1.00;;;12.60;98.20;;;;;;4986168;28;20804;-76
2023/04/28 07:39:58;;;;;;;1.50;1.10;;;12.60;98.20;;;;;;4988010;28;20532;-75
2023/04/28 07:42:24;;;;;;;1.70;1.47;;;12.60;98.20;;;;;;4987690;28;21082;-75
2023/04/28 07:44:51;;;;;;;1.50;1.00;;;12.60;98.20;;;;;;4987244;28;20484;-75
2023/04/28 07:47:18;;;;;;;1.50;1.10;;;12.70;98.20;;;;;;4989212;28;20487;-76
2023/04/28 07:49:45;;;;;;;1.47;1.00;;;12.80;98.20;;;;;;4990780;28;20911;-75
2023/04/28 07:52:12;;;;;;;1.50;1.30;;;12.90;98.20;;;;;;4985118;28;20534;-75
2023/04/28 07:54:39;;;;;;;1.50;1.10;;;13.00;98.20;;;;;;4986057;28;20680;-75
2023/04/28 07:57:09;;;;;;;1.50;1.00;;;13.00;98.20;;;;;;4986751;28;20861;-76
2023/04/28 07:59:35;;;;;;;1.50;1.00;;;13.00;98.20;;;;;;4995363;28;20464;-75
2023/04/28 08:02:02;;;;;;;1.43;1.00;;;13.00;98.20;;;;;;4982115;28;20507;-75
2023/04/28 08:04:30;;;;;;;1.50;1.00;;;13.00;98.20;;;;;;4985250;28;20936;-75
2023/04/28 08:06:57;;;;;;;1.50;1.10;;;13.10;98.20;;;;;;4986793;28;20483;-75
2023/04/28 08:09:24;;;;;;;1.43;1.00;;;13.30;98.20;;;;;;4988825;28;20786;-75
2023/04/28 08:11:51;;;;;;;1.50;1.00;;;13.30;98.20;;;;;;4982738;28;20483;-75
2023/04/28 08:14:20;;;;;;;1.47;0.90;;;13.20;98.20;;;;;;4991703;28;20488;-77
2023/04/28 08:16:47;;;;;;;1.47;1.00;;;13.30;98.20;;;;;;4976480;28;20483;-78
2023/04/28 08:19:14;;;;;;;1.50;1.03;;;13.30;98.20;;;;;;4995955;28;20497;-79
2023/04/28 08:21:41;;;;;;;1.43;0.93;;;13.30;98.20;;;;;;4983355;28;20496;-81
2023/04/28 08:24:09;;;;;;;1.50;1.00;;;13.30;98.20;;;;;;4998631;28;20515;-80
2023/04/28 08:26:36;;;;;;;1.50;1.00;;;13.30;98.20;;;;;;4979348;28;20480;-81
2023/04/28 08:29:03;;;;;;;1.50;1.00;;;13.30;98.20;;;;;;4992461;28;20974;-79
2023/04/28 08:31:32;;;;;;;1.50;1.00;;;13.40;98.20;;;;;;4981300;28;20492;-78
2023/04/28 08:33:59;;;;;;;1.50;1.00;;;13.50;98.20;;;;;;4999086;28;20484;-77
2023/04/28 08:36:30;;;;;;;1.50;1.00;;;13.60;98.20;;;;;;4980640;28;20494;-77
2023/04/28 08:39:00;;;;;;;1.50;1.00;;;13.70;98.20;;;;;;4995671;28;20469;-76
2023/04/28 08:41:28;;;;;;;1.50;1.10;;;13.80;98.20;;;;;;4981250;28;21030;-75
2023/04/28 08:43:55;;;;;;;1.50;1.00;;;13.90;98.20;;;;;;4994954;28;20579;-75
2023/04/28 08:46:23;;;;;;;1.50;1.00;;;14.10;98.20;;;;;;4976669;28;20475;-75
2023/04/28 08:48:56;;;;;;;1.50;1.00;;;14.20;98.20;;;;;;4996820;28;20962;-74
2023/04/28 08:51:28;;;;;;;1.50;1.00;;;14.20;98.20;;;;;;4982175;28;20864;-75
2023/04/28 08:53:58;;;;;;;1.50;1.00;;;14.30;98.20;;;;;;4995330;28;20496;-75
2023/04/28 08:56:27;;;;;;;1.43;0.90;;;14.50;98.20;;;;;;4978896;28;20567;-74
2023/04/28 08:58:54;;;;;;;1.50;1.10;;;14.60;98.20;;;;;;4990227;28;20466;-75
2023/04/28 09:01:22;;;;;;;1.47;0.97;;;14.70;98.20;;;;;;4982220;28;20562;-74
2023/04/28 09:03:51;;;;;;;1.47;1.00;;;14.70;98.20;;;;;;4993035;28;20480;-74
2023/04/28 09:06:17;;;;;;;1.50;1.00;;;14.70;98.20;;;;;;4983392;28;20481;-74
2023/04/28 09:08:44;;;;;;;1.50;1.00;;;14.70;98.20;;;;;;5003202;28;20479;-77
2023/04/28 09:11:12;;;;;;;1.47;1.00;;;14.70;98.20;;;;;;4980977;28;20485;-77
2023/04/28 09:13:39;;;;;;;1.47;0.93;;;14.60;98.20;;;;;;4992793;28;20883;-77
2023/04/28 09:16:07;;;;;;;1.47;0.90;;;14.60;98.20;;;;;;4983578;28;20485;-75
2023/04/28 09:18:34;;;;;;;1.50;1.00;;;14.60;98.20;;;;;;4994868;28;20993;-75
2023/04/28 09:21:06;;;;;;;1.47;0.90;;;14.70;98.20;;;;;;4977765;28;20476;-76
2023/04/28 09:23:34;;;;;;;1.47;0.97;;;14.80;98.20;;;;;;4994202;28;20718;-76
2023/04/28 09:26:02;;;;;;;1.50;1.00;;;15.00;98.20;;;;;;4975904;28;20492;-76
2023/04/28 09:28:29;;;;;;;1.50;0.90;;;15.10;98.20;;;;;;4990598;28;20555;-76
2023/04/28 09:30:56;;;;;;;1.50;0.97;;;15.00;98.20;;;;;;4978090;28;20547;-75
2023/04/28 09:33:23;;;;;;;1.50;1.00;;;14.90;98.20;;;;;;5001674;28;20510;-77
2023/04/28 09:35:50;;;;;;;1.50;1.00;;;14.80;98.20;;;;;;4984373;28;20472;-76
2023/04/28 09:38:19;;;;;;;1.50;1.00;;;14.80;98.20;;;;;;4998499;28;20476;-76
2023/04/28 09:40:51;;;;;;;1.50;1.00;;;14.80;98.20;;;;;;4985783;28;20564;-76
2023/04/28 09:43:25;;;;;;;1.50;0.90;;;14.90;98.20;;;;;;4998893;28;20900;-76
2023/04/28 09:45:52;;;;;;;1.50;1.00;;;14.90;98.20;;;;;;4971732;28;20495;-76
2023/04/28 09:48:27;;;;;;;1.43;1.00;;;15.00;98.20;;;;;;4996100;28;20465;-76
2023/04/28 09:50:55;;;;;;;1.50;0.90;;;14.90;98.20;;;;;;4979632;28;20896;-78
2023/04/28 09:53:24;;;;;;;1.50;1.00;;;15.00;98.20;;;;;;5004674;28;20553;-78
2023/04/28 09:55:53;;;;;;;1.50;0.97;;;15.10;98.20;;;;;;4978544;28;20853;-75
2023/04/28 09:58:21;;;;;;;1.47;0.93;;;15.20;98.20;;;;;;5000335;28;20469;-82
2023/04/28 10:00:52;;;;;;;1.50;1.00;;;15.30;98.20;;;;;;4991723;28;20903;-78
2023/04/28 10:03:21;;;;;;;1.50;1.00;;;15.30;98.20;;;;;;4976371;28;20941;-82
2023/04/28 10:05:51;;;;;;;1.50;0.97;;;15.10;98.20;;;;;;4987660;28;20594;-85
2023/04/28 10:08:18;;;;;;;1.50;1.10;;;15.00;98.20;;;;;;5002131;28;20468;-80
2023/04/28 10:10:48;;;;;;;1.50;1.00;;;14.80;98.20;;;;;;4978127;28;20473;-79
2023/04/28 10:13:18;;;;;;;1.47;0.90;;;14.80;98.20;;;;;;4971879;28;20476;-78
2023/04/28 10:15:46;;;;;;;1.47;0.90;;;14.90;98.20;;;;;;4985862;28;20579;-78
2023/04/28 10:18:13;;;;;;;1.50;1.00;;;14.90;98.20;;;;;;4977550;28;20476;-80
2023/04/28 10:20:44;;;;;;;1.50;1.00;;;14.90;98.20;;;;;;4986278;28;20477;-79
2023/04/28 10:23:46;;;;;;;1.47;1.00;;;14.90;98.20;;;;;;4978127;28;20490;-79
2023/04/28 10:26:18;;;;;;;1.47;1.00;;;14.90;98.20;;;;;;4976698;28;20857;-77
2023/04/28 10:28:47;;;;;;;1.47;0.90;;;14.90;98.20;;;;;;4992533;28;20469;-77
2023/04/28 10:31:16;;;;;;;1.43;0.90;;;15.00;98.20;;;;;;4982319;28;20494;-76
2023/04/28 10:33:44;;;;;;;1.50;1.00;;;15.00;98.20;;;;;;4991175;28;20489;-76
2023/04/28 10:36:47;;;;;;;1.43;0.97;;;15.10;98.20;;;;;;4982016;28;20488;-76
2023/04/28 10:39:14;;;;;;;1.47;0.90;;;15.30;98.20;;;;;;4988608;28;20465;-76
2023/04/28 10:41:42;;;;;;;1.43;0.90;;;15.40;98.20;;;;;;4983738;28;20484;-76
2023/04/28 10:44:43;;;;;;;1.50;0.93;;;15.50;98.20;;;;;;4999454;28;20483;-78
2023/04/28 10:47:10;;;;;;;1.47;0.97;;;15.60;98.20;;;;;;4987596;28;21033;-78
2023/04/28 10:50:09;;;;;;;1.50;0.90;;;15.60;98.20;;;;;;4993377;28;20472;-76
2023/04/28 10:52:51;;;;;;;1.50;1.00;;;15.70;98.20;;;;;;4982860;28;20498;-76
2023/04/28 10:55:35;;;;;;;1.50;0.97;;;15.80;98.20;;;;;;4986799;28;20552;-77
2023/04/28 10:58:36;;;;;;;1.50;1.00;;;15.80;98.20;;;;;;4985157;28;20546;-76
2023/04/28 11:01:25;;;;;;;1.50;0.90;;;15.90;98.20;;;;;;4976723;28;21011;-77
2023/04/28 11:03:58;;;;;;;1.43;0.90;;;16.00;98.20;;;;;;4984352;28;20488;-76
2023/04/28 11:06:28;;;;;;;1.50;0.90;;;16.10;98.20;;;;;;4980965;28;20482;-76
2023/04/28 11:08:56;;;;;;;1.43;0.90;;;16.30;98.20;;;;;;4998828;28;20492;-75
2023/04/28 11:11:25;;;;;;;1.40;0.90;;;16.40;98.20;;;;;;4979531;28;20480;-77
2023/04/28 11:13:55;;;;;;;1.50;1.00;;;16.60;98.20;;;;;;4999759;28;20496;-75
2023/04/28 11:16:25;;;;;;;1.47;1.00;;;16.80;98.20;;;;;;4982022;28;20518;-77
2023/04/28 11:18:58;;;;;;;1.50;0.90;;;17.00;98.20;;;;;;4994379;28;20460;-78
2023/04/28 11:21:28;;;;;;;1.50;1.00;;;17.20;98.20;;;;;;4975218;28;20682;-77
2023/04/28 11:23:55;;;;;;;1.50;1.00;;;17.50;98.20;;;;;;4991345;28;20511;-77
2023/04/28 11:26:23;;;;;;;1.50;0.90;;;17.70;98.20;;;;;;4981144;28;20506;-77
2023/04/28 11:28:51;;;;;;;1.50;0.90;;;17.90;98.20;;;;;;4989992;28;20469;-77
2023/04/28 11:31:24;;;;;;;1.50;0.97;;;18.00;98.20;;;;;;4976838;28;20991;-75
2023/04/28 11:33:54;;;;;;;1.50;0.90;;;18.10;98.20;;;;;;4988018;28;20499;-75
2023/04/28 11:36:34;;;;;;;1.50;1.07;;;18.10;98.20;;;;;;4978618;28;20483;-75
2023/04/28 11:39:03;;;;;;;1.50;0.90;;;18.20;98.20;;;;;;4988279;28;20461;-75
2023/04/28 11:41:32;;;;;;;1.50;0.90;;;18.40;98.20;;;;;;4978049;28;20492;-76
2023/04/28 11:44:00;;;;;;;1.50;0.90;;;18.80;98.20;;;;;;4992985;28;20521;-78
2023/04/28 11:46:28;;;;;;;1.50;0.90;;;19.20;98.20;;;;;;4984942;28;20480;-78
2023/04/28 11:49:03;;;;;;;1.50;0.90;;;19.50;98.20;;;;;;4994372;28;20866;-77
2023/04/28 11:51:32;;;;;;;1.50;0.90;;;19.70;98.20;;;;;;4979633;28;20506;-77
2023/04/28 11:53:59;;;;;;;1.50;0.90;;;19.90;98.20;;;;;;4990246;28;20616;-77
2023/04/28 11:56:26;;;;;;;1.50;0.90;;;20.10;98.20;;;;;;4977551;28;20578;-76
2023/04/28 11:59:04;;;;;;;1.50;0.90;;;20.10;98.20;;;;;;4989223;28;20471;-77
2023/04/28 12:01:33;;;;;;;1.50;0.90;;;20.20;98.20;;;;;;4978996;28;20548;-76
2023/04/28 12:04:00;;;;;;;1.50;1.00;;;20.40;98.20;;;;;;4995170;28;20492;-77
2023/04/28 12:06:27;;;;;;;1.50;0.90;;;20.50;98.20;;;;;;4979078;28;20575;-76
2023/04/28 12:08:54;;;;;;;1.50;0.90;;;20.70;98.20;;;;;;4990556;28;20477;-75
2023/04/28 12:11:21;;;;;;;1.50;0.90;;;21.00;98.20;;;;;;4977248;28;20486;-75
2023/04/28 12:14:08;;;;;;;1.50;0.90;;;21.40;98.20;;;;;;4993581;28;21060;-75
2023/04/28 12:16:42;;;;;;;1.50;0.90;;;22.00;98.20;;;;;;4981228;28;20506;-75
2023/04/28 12:19:10;;;;;;;1.50;0.90;;;22.30;98.20;;;;;;4987293;28;20887;-76
2023/04/28 12:21:38;;;;;;;1.50;0.90;;;22.50;98.20;;;;;;4980021;28;20479;-76
2023/04/28 12:24:19;;;;;;;1.50;0.90;;;22.60;98.20;;;;;;4995020;28;20516;-76
2023/04/28 12:26:47;;;;;;;1.50;1.10;;;22.80;98.20;;;;;;4983820;28;20539;-76
2023/04/28 12:29:39;;;;;;;1.47;0.80;;;22.90;98.20;;;;;;4992279;28;20464;-76
2023/04/28 12:32:11;;;;;;;1.73;1.27;;;22.90;98.20;;;;;;4985162;28;20495;-76
2023/04/28 12:34:40;;;;;;;1.50;0.83;;;23.00;98.20;;;;;;4990263;28;20511;-76
2023/04/28 12:37:07;;;;;;;1.50;1.00;;;23.20;98.20;;;;;;4982665;28;21035;-76
2023/04/28 12:39:35;;;;;;;1.47;0.90;;;23.20;97.00;;;;;;4992935;28;20662;-75
2023/04/28 12:42:03;;;;;;;1.50;0.80;;;23.20;96.80;;;;;;4979654;28;20490;-76
2023/04/28 12:44:35;;;;;;;1.50;0.90;;;23.20;97.60;;;;;;4986485;28;20557;-77
2023/04/28 12:47:06;;;;;;;1.50;0.90;;;23.20;96.70;;;;;;4988933;28;20484;-77
2023/04/28 12:49:35;;;;;;;1.50;0.90;;;23.00;97.80;;;;;;4991294;28;20468;-77
2023/04/28 12:52:03;;;;;;;1.50;0.90;;;23.00;96.70;;;;;;4985620;28;20516;-75
2023/04/28 12:54:29;;;;;;;1.43;0.83;;;22.80;96.30;;;;;;4989452;28;20495;-77
2023/04/28 12:56:56;;;;;;;1.43;0.80;;;22.90;98.00;;;;;;4988773;28;20498;-76